Time;durP1;ratioP1;P1;durP2;ratioP2;P2;SDS_P1;SDS_P2;PMS_P1;PMS_P2;Temp;Humidity;BMP_temperature;BMP_pressure;BME280_temperature;BME280_humidity;BME280_pressure;Samples;Min_cycle;Max_cycle;Signal;HPM_P1;HPM_P2
2023/12/09 00:00:04;;;;;;;10.47;4.10;;;;;;;5.46;100.00;101003.75;5014388;28;20025;-82
2023/12/09 00:02:32;;;;;;;8.63;3.75;;;;;;;5.46;100.00;100997.75;5015266;28;20034;-82
2023/12/09 00:05:16;;;;;;;7.07;3.78;;;;;;;5.33;100.00;100971.91;5012653;28;20065;-83
2023/12/09 00:07:47;;;;;;;10.73;4.10;;;;;;;5.37;100.00;100978.81;5014503;28;20030;-83
2023/12/09 00:10:21;;;;;;;10.70;4.10;;;;;;;5.37;100.00;100972.81;5015035;28;20490;-82
2023/12/09 00:13:04;;;;;;;7.90;3.72;;;;;;;5.40;100.00;100983.97;5014562;28;20108;-83
2023/12/09 00:15:29;;;;;;;9.40;3.75;;;;;;;5.43;100.00;100982.28;5006451;28;20026;-82
2023/12/09 00:18:04;;;;;;;10.30;3.70;;;;;;;5.40;100.00;100980.56;5014734;28;20084;-83
2023/12/09 00:20:29;;;;;;;9.57;3.50;;;;;;;5.43;100.00;100992.56;5014001;28;20028;-83
2023/12/09 00:22:55;;;;;;;8.27;3.33;;;;;;;5.41;100.00;100990.00;5014557;28;20101;-82
2023/12/09 00:25:20;;;;;;;12.98;4.22;;;;;;;5.43;100.00;100987.44;5015087;28;20097;-82
2023/12/09 00:27:45;;;;;;;11.23;3.97;;;;;;;5.43;100.00;101000.31;5014321;28;20044;-83
2023/12/09 00:30:14;;;;;;;9.57;3.90;;;;;;;5.37;100.00;100991.69;5015189;28;20041;-82
2023/12/09 00:32:42;;;;;;;11.70;3.95;;;;;;;5.44;100.00;101005.47;5014490;28;20030;-82
2023/12/09 00:35:13;;;;;;;10.32;3.80;;;;;;;5.36;100.00;100987.41;5013582;28;20061;-82
2023/12/09 00:38:44;;;;;;;8.50;4.05;;;;;;;5.47;100.00;100994.34;5013745;28;20557;-82
2023/12/09 00:42:12;;;;;;;9.32;3.88;;;;;;;5.44;100.00;100996.88;5013773;28;20042;-82
2023/12/09 00:45:40;;;;;;;12.48;4.63;;;;;;;5.47;100.00;100989.19;4996783;28;20078;-83
2023/12/09 00:49:14;;;;;;;12.65;4.38;;;;;;;5.45;100.00;100994.34;5005233;28;20050;-82
2023/12/09 00:51:39;;;;;;;14.30;4.57;;;;;;;5.30;100.00;100971.03;5013939;28;20050;-83
2023/12/09 00:54:04;;;;;;;12.30;4.40;;;;;;;5.42;100.00;100999.44;5014129;28;20037;-82
2023/12/09 00:57:00;;;;;;;11.23;4.30;;;;;;;5.28;100.00;100972.72;5013650;28;20538;-82
2023/12/09 00:59:31;;;;;;;10.07;3.92;;;;;;;5.41;100.00;100990.84;5193303;23;20417;-82
2023/12/09 01:02:27;;;;;;;10.07;3.80;;;;;;;5.42;100.00;100981.44;4994007;28;20427;-83
2023/12/09 01:05:05;;;;;;;8.85;3.72;;;;;;;5.30;100.00;100959.00;5030561;23;20504;-82
2023/12/09 01:08:11;;;;;;;9.30;4.00;;;;;;;5.27;100.00;100966.72;4974495;28;20365;-82
2023/12/09 01:10:48;;;;;;;12.73;4.35;;;;;;;5.30;100.00;100966.72;4979751;23;20055;-83
2023/12/09 01:13:35;;;;;;;14.18;4.22;;;;;;;5.37;100.00;100981.41;4973996;28;20106;-83
2023/12/09 01:16:34;;;;;;;14.45;5.07;;;;;;;5.36;100.00;100986.50;4974360;28;20031;-83
2023/12/09 01:21:24;;;;;;;11.88;4.70;;;;;;;5.29;100.00;100965.03;5172201;23;20133;-82
2023/12/09 01:23:50;;;;;;;12.40;4.45;;;;;;;5.30;100.00;100982.19;4993424;28;20379;-83
2023/12/09 01:26:15;;;;;;;10.87;4.20;;;;;;;5.28;100.00;100981.31;4994144;28;20026;-83
2023/12/09 01:28:41;;;;;;;11.27;4.33;;;;;;;5.26;100.00;100977.88;5013430;28;20026;-83
2023/12/09 01:31:09;;;;;;;11.02;4.28;;;;;;;5.24;100.00;100972.69;5013109;28;20053;-83
2023/12/09 01:33:34;;;;;;;14.05;4.70;;;;;;;5.25;100.00;100966.69;5013530;28;20033;-83
2023/12/09 01:36:06;;;;;;;14.93;5.07;;;;;;;5.25;100.00;100979.56;5013161;28;20030;-82
2023/12/09 01:38:32;;;;;;;11.90;4.80;;;;;;;5.25;100.00;100981.28;5012870;28;20113;-82
2023/12/09 01:40:57;;;;;;;9.57;4.10;;;;;;;5.23;100.00;100980.41;4994378;28;20069;-82
2023/12/09 01:43:23;;;;;;;13.05;4.55;;;;;;;5.18;100.00;100982.09;4993927;28;20066;-83
2023/12/09 01:45:53;;;;;;;9.70;3.80;;;;;;;5.13;100.00;100976.03;4993060;28;20030;-82
2023/12/09 01:48:19;;;;;;;10.20;3.72;;;;;;;5.05;100.00;100963.09;4993704;28;20038;-83
2023/12/09 01:50:48;;;;;;;9.40;3.42;;;;;;;5.05;100.00;100957.94;4993164;28;20037;-82
2023/12/09 01:53:13;;;;;;;10.07;3.83;;;;;;;5.00;100.00;100955.34;4993908;28;20044;-83
2023/12/09 01:55:41;;;;;;;7.83;3.63;;;;;;;4.90;100.00;100935.53;4993693;28;20117;-83
2023/12/09 01:58:07;;;;;;;6.60;3.30;;;;;;;4.95;100.00;100941.59;4993246;28;20034;-82
2023/12/09 02:00:33;;;;;;;5.45;2.90;;;;;;;4.88;100.00;100934.63;4993408;28;20018;-83
2023/12/09 02:02:59;;;;;;;6.60;3.15;;;;;;;4.90;100.00;100945.81;4993543;28;20057;-82
2023/12/09 02:07:59;;;;;;;7.30;3.22;;;;;;;4.85;100.00;100943.19;5014459;23;20054;-83
2023/12/09 02:10:25;;;;;;;8.27;3.30;;;;;;;4.83;100.00;100946.59;4973743;28;20030;-83
2023/12/09 02:13:14;;;;;;;5.90;3.15;;;;;;;4.79;100.00;100953.41;4973359;28;20358;-82
2023/12/09 02:15:44;;;;;;;7.53;3.13;;;;;;;4.78;100.00;100951.69;4973934;28;20090;-83
2023/12/09 02:18:12;;;;;;;8.75;3.08;;;;;;;4.73;100.00;100943.06;4974185;28;20037;-82
2023/12/09 02:20:37;;;;;;;5.30;3.13;;;;;;;4.72;100.00;100949.94;4973369;28;20086;-82
2023/12/09 02:23:12;;;;;;;5.70;2.83;;;;;;;4.65;100.00;100942.97;4973740;28;20027;-82
2023/12/09 02:25:38;;;;;;;9.95;4.05;;;;;;;4.71;100.00;100943.06;4973727;28;20384;-82
2023/12/09 02:28:21;;;;;;;7.85;3.50;;;;;;;4.67;100.00;100937.88;4973281;28;20015;-83
2023/12/09 02:31:05;;;;;;;6.90;3.20;;;;;;;4.66;100.00;100938.72;4955641;28;20401;-82
2023/12/09 02:33:33;;;;;;;8.38;3.65;;;;;;;4.60;100.00;100934.38;4958060;29;20508;-82
2023/12/09 02:36:01;;;;;;;10.70;3.70;;;;;;;4.62;100.00;100936.09;4968936;28;20046;-82
2023/12/09 02:38:29;;;;;;;6.28;3.40;;;;;;;4.65;100.00;100930.13;4977974;28;20019;-82
2023/12/09 02:40:58;;;;;;;9.63;3.63;;;;;;;4.50;100.00;100910.25;5046897;23;20085;-83
2023/12/09 02:43:26;;;;;;;10.55;3.78;;;;;;;4.51;100.00;100903.41;4977802;28;20062;-82
2023/12/09 02:45:51;;;;;;;9.85;3.90;;;;;;;4.63;100.00;100911.25;4976976;28;20035;-83
2023/12/09 02:48:17;;;;;;;12.03;4.33;;;;;;;4.48;100.00;100889.69;4976765;28;20029;-82
2023/12/09 02:51:02;;;;;;;13.63;4.33;;;;;;;4.61;100.00;100897.53;4977219;28;20591;-82
2023/12/09 02:53:54;;;;;;;11.40;4.10;;;;;;;4.64;100.00;100912.97;4977380;28;20054;-83
2023/12/09 02:58:59;;;;;;;9.25;3.92;;;;;;;4.61;100.00;100911.25;5120481;23;20061;-83
2023/12/09 03:01:27;;;;;;;9.85;3.78;;;;;;;4.61;100.00;100907.81;4976867;28;20077;-82
2023/12/09 03:03:52;;;;;;;10.60;3.80;;;;;;;4.60;100.00;100898.38;4977100;28;20392;-83
2023/12/09 03:06:18;;;;;;;7.83;3.47;;;;;;;4.57;100.00;100898.34;4977522;28;20027;-82
2023/12/09 03:08:43;;;;;;;6.95;3.17;;;;;;;4.52;100.00;100893.16;4976248;28;20054;-82
2023/12/09 03:11:08;;;;;;;7.97;3.53;;;;;;;4.53;100.00;100884.59;4977017;28;20498;-83
2023/12/09 03:13:34;;;;;;;12.00;3.63;;;;;;;4.55;100.00;100894.88;4976678;28;20026;-83
2023/12/09 03:15:59;;;;;;;7.22;3.38;;;;;;;4.57;100.00;100877.78;4975889;28;20105;-82
2023/12/09 03:18:24;;;;;;;7.95;3.28;;;;;;;4.56;100.00;100905.16;4977218;28;20073;-82
2023/12/09 03:20:50;;;;;;;10.65;3.47;;;;;;;4.54;100.00;100863.19;4977070;28;20035;-83
2023/12/09 03:23:18;;;;;;;8.05;3.45;;;;;;;4.53;100.00;100906.84;4976202;28;20073;-82
2023/12/09 03:25:55;;;;;;;6.05;3.10;;;;;;;4.55;100.00;100857.22;4976476;28;20023;-82
2023/12/09 03:28:36;;;;;;;9.85;3.70;;;;;;;4.54;100.00;100898.31;4942767;28;20046;-82
2023/12/09 03:31:15;;;;;;;9.60;3.60;;;;;;;4.49;100.00;100857.13;4974800;28;20183;-83
2023/12/09 03:33:52;;;;;;;11.75;4.10;;;;;;;4.51;100.00;100876.00;4976326;28;20031;-82
2023/12/09 03:36:39;;;;;;;11.05;3.83;;;;;;;4.56;100.00;100876.06;4975975;28;20798;-83
2023/12/09 03:39:20;;;;;;;11.32;3.70;;;;;;;4.57;100.00;100872.63;4977117;28;20031;-82
2023/12/09 03:42:06;;;;;;;10.30;4.00;;;;;;;4.51;100.00;100855.44;4975487;28;20495;-83
2023/12/09 03:44:39;;;;;;;10.90;4.13;;;;;;;4.50;100.00;100852.88;4975458;28;20501;-83
2023/12/09 03:47:17;;;;;;;13.00;4.20;;;;;;;4.64;100.00;100876.97;4976253;28;20567;-82
2023/12/09 03:49:54;;;;;;;11.18;4.03;;;;;;;4.54;100.00;100854.59;4976564;28;20019;-83
2023/12/09 03:52:41;;;;;;;15.27;4.82;;;;;;;4.69;100.00;100879.59;4975374;28;20030;-82
2023/12/09 03:58:50;;;;;;;12.48;3.90;;;;;;;4.65;100.00;100858.13;4916828;29;20101;-82
2023/12/09 04:01:33;;;;;;;13.70;4.10;;;;;;;4.61;100.00;100839.25;4912744;29;20028;-83
2023/12/09 04:04:05;;;;;;;12.30;4.10;;;;;;;4.61;100.00;100838.41;4918362;29;20496;-82
2023/12/09 04:06:45;;;;;;;11.48;4.05;;;;;;;4.61;100.00;100836.69;4918391;29;20035;-82
2023/12/09 04:09:16;;;;;;;11.50;3.88;;;;;;;4.62;100.00;100838.41;4918585;29;20028;-82
2023/12/09 04:12:03;;;;;;;9.48;3.60;;;;;;;4.48;100.00;100822.00;4917772;29;20035;-83
2023/12/09 04:14:28;;;;;;;10.35;3.90;;;;;;;4.48;100.00;100824.56;4918607;29;20115;-82
2023/12/09 04:16:53;;;;;;;10.63;3.97;;;;;;;4.52;100.00;100835.72;4918594;29;20111;-83
2023/12/09 04:19:35;;;;;;;16.23;3.90;;;;;;;4.45;100.00;100827.09;4918055;29;20051;-82
2023/12/09 04:22:03;;;;;;;8.75;3.50;;;;;;;4.54;100.00;100837.50;4918555;29;20083;-82
2023/12/09 04:24:34;;;;;;;10.40;3.90;;;;;;;4.48;100.00;100833.16;4918148;29;20036;-83
2023/12/09 04:27:00;;;;;;;9.48;3.72;;;;;;;4.44;100.00;100817.69;4917375;29;20071;-83
2023/12/09 04:29:43;;;;;;;11.63;3.70;;;;;;;4.42;100.00;100799.66;4918142;29;20081;-82
2023/12/09 04:32:20;;;;;;;13.43;4.35;;;;;;;4.41;100.00;100808.22;4918271;29;20474;-82
2023/12/09 04:35:01;;;;;;;14.15;4.32;;;;;;;4.50;100.00;100814.31;4917764;29;20028;-82
2023/12/09 04:37:38;;;;;;;10.73;3.85;;;;;;;4.54;100.00;100818.63;4918178;29;20032;-82
2023/12/09 04:40:13;;;;;;;13.73;4.07;;;;;;;4.56;100.00;100798.94;4917642;29;20027;-82
2023/12/09 04:42:41;;;;;;;16.30;5.07;;;;;;;4.53;100.00;100801.47;4918126;29;20025;-83
2023/12/09 04:45:12;;;;;;;12.77;4.20;;;;;;;4.47;100.00;100792.88;4918111;29;20060;-83
2023/12/09 04:47:40;;;;;;;11.32;3.90;;;;;;;4.59;100.00;100807.53;4917155;29;20036;-83
2023/12/09 04:50:10;;;;;;;14.98;4.40;;;;;;;4.57;100.00;100793.78;4918244;29;20099;-83
2023/12/09 04:52:36;;;;;;;11.80;3.88;;;;;;;4.61;100.00;100805.00;4917514;29;20032;-83
2023/12/09 04:55:03;;;;;;;18.03;5.17;;;;;;;4.76;100.00;100806.81;4916822;29;20039;-82
2023/12/09 04:57:47;;;;;;;14.18;4.53;;;;;;;4.54;100.00;100788.66;4932212;29;20067;-83
2023/12/09 05:00:18;;;;;;;13.73;4.25;;;;;;;4.54;100.00;100777.50;4936968;29;20031;-83
2023/12/09 05:03:18;;;;;;;10.25;3.63;;;;;;;4.59;100.00;100786.13;4935727;29;20032;-82
2023/12/09 05:09:12;;;;;;;9.70;3.15;;;;;;;4.46;100.00;100780.88;5006278;23;20033;-82
2023/12/09 05:11:37;;;;;;;12.33;4.07;;;;;;;4.53;100.00;100794.63;4974952;28;20038;-83
2023/12/09 05:14:02;;;;;;;13.55;3.85;;;;;;;4.63;100.00;100783.59;4974840;28;20093;-82
2023/12/09 05:16:34;;;;;;;16.20;4.60;;;;;;;4.58;100.00;100781.81;4973729;28;20105;-83
2023/12/09 05:18:59;;;;;;;13.05;4.03;;;;;;;4.56;100.00;100791.22;4990763;23;20372;-82
2023/12/09 05:21:27;;;;;;;8.93;3.50;;;;;;;4.52;100.00;100787.78;4974238;28;20109;-83
2023/12/09 05:23:52;;;;;;;11.45;3.80;;;;;;;4.54;100.00;100792.91;4973521;28;20023;-82
2023/12/09 05:26:28;;;;;;;10.00;3.30;;;;;;;4.47;100.00;100780.03;4974756;28;20035;-83
2023/12/09 05:28:55;;;;;;;7.60;2.97;;;;;;;4.46;100.00;100775.72;4973848;28;20503;-82
2023/12/09 05:31:21;;;;;;;6.47;3.30;;;;;;;4.51;100.00;100772.31;4974728;28;20391;-82
2023/12/09 05:33:47;;;;;;;10.57;3.72;;;;;;;4.48;100.00;100774.03;4974496;28;20407;-83
2023/12/09 05:38:56;;;;;;;9.25;3.50;;;;;;;4.40;100.00;100747.38;4983190;23;20058;-83
2023/12/09 05:41:22;;;;;;;10.18;3.50;;;;;;;4.44;100.00;100764.56;4974689;28;20027;-83
2023/12/09 05:43:47;;;;;;;9.13;3.10;;;;;;;4.45;100.00;100761.16;4973160;28;20561;-83
2023/12/09 05:46:19;;;;;;;11.88;3.80;;;;;;;4.49;100.00;100772.31;4974527;28;20547;-82
2023/12/09 05:48:45;;;;;;;8.20;3.17;;;;;;;4.48;100.00;100750.03;4973921;28;20502;-83
2023/12/09 05:51:16;;;;;;;15.35;4.40;;;;;;;4.56;100.00;100753.53;4973731;28;20027;-83
2023/12/09 05:53:41;;;;;;;16.83;4.25;;;;;;;4.58;100.00;100754.41;4974414;28;20415;-83
2023/12/09 05:56:11;;;;;;;14.57;4.10;;;;;;;4.55;100.00;100756.09;4974402;28;20027;-83
2023/12/09 05:58:37;;;;;;;10.82;3.20;;;;;;;4.56;100.00;100756.09;4973274;28;20027;-83
2023/12/09 06:01:02;;;;;;;9.83;3.87;;;;;;;4.55;100.00;100762.09;4974683;28;20023;-83
2023/12/09 06:03:28;;;;;;;12.32;3.75;;;;;;;4.58;100.00;100763.84;4974420;28;20041;-83
2023/12/09 06:05:57;;;;;;;7.13;3.20;;;;;;;4.56;100.00;100761.22;4973038;28;20058;-82
2023/12/09 06:08:23;;;;;;;12.93;3.50;;;;;;;4.58;100.00;100761.25;4973976;28;20034;-83
2023/12/09 06:10:48;;;;;;;11.80;3.40;;;;;;;4.51;100.00;100752.63;4973182;28;20357;-83
2023/12/09 06:13:13;;;;;;;10.07;3.47;;;;;;;4.56;100.00;100756.09;4974162;28;20105;-83
2023/12/09 06:15:39;;;;;;;12.43;3.50;;;;;;;4.55;100.00;100736.41;4973853;28;20502;-89
2023/12/09 06:18:04;;;;;;;8.13;3.20;;;;;;;4.57;100.00;100746.69;4973836;28;20022;-83
2023/12/09 06:20:29;;;;;;;14.93;3.78;;;;;;;4.57;100.00;100726.13;4974446;28;20121;-86
2023/12/09 06:22:55;;;;;;;8.38;3.00;;;;;;;4.62;100.00;100715.03;4973942;28;20096;-82
2023/12/09 06:25:20;;;;;;;10.02;3.63;;;;;;;4.56;100.00;100719.25;4973282;28;20023;-82
2023/12/09 06:27:45;;;;;;;9.85;3.50;;;;;;;4.55;100.00;100718.41;4973662;28;20054;-84
2023/12/09 06:32:46;;;;;;;12.65;3.70;;;;;;;4.54;100.00;100719.25;5193668;23;20058;-84
2023/12/09 06:35:14;;;;;;;14.00;3.70;;;;;;;4.51;100.00;100701.22;4973952;28;20081;-84
2023/12/09 06:37:39;;;;;;;11.80;3.80;;;;;;;4.39;100.00;100684.00;4973670;28;20391;-84
2023/12/09 06:40:08;;;;;;;13.03;4.07;;;;;;;4.54;100.00;100705.53;4973313;28;20106;-84
2023/12/09 06:42:33;;;;;;;12.15;4.18;;;;;;;4.41;100.00;100678.88;5140277;23;20066;-84
2023/12/09 06:45:13;;;;;;;12.13;3.88;;;;;;;4.47;100.00;100677.22;4973458;28;20030;-84
2023/12/09 06:47:53;;;;;;;10.77;3.60;;;;;;;4.40;100.00;100664.31;4972726;28;20027;-85
2023/12/09 06:51:08;;;;;;;11.80;3.95;;;;;;;4.54;100.00;100677.25;4973708;28;20023;-84
2023/12/09 06:53:45;;;;;;;11.18;4.00;;;;;;;4.44;100.00;100653.22;4972880;28;20038;-84
2023/12/09 06:56:26;;;;;;;11.27;4.00;;;;;;;4.48;100.00;100665.22;4973635;28;20031;-84
2023/12/09 06:59:42;;;;;;;13.45;3.83;;;;;;;4.59;100.00;100663.59;4973396;28;20503;-84
2023/12/09 07:02:22;;;;;;;9.55;3.38;;;;;;;4.49;100.00;100638.69;4972989;28;20035;-84
2023/12/09 07:05:00;;;;;;;15.52;4.45;;;;;;;4.58;100.00;100604.47;4973160;28;20384;-83
2023/12/09 07:07:34;;;;;;;12.65;4.25;;;;;;;4.47;100.00;100612.09;4972953;28;20027;-83
2023/12/09 07:10:05;;;;;;;13.15;3.90;;;;;;;4.41;100.00;100591.53;4973679;28;20023;-84
2023/12/09 07:12:36;;;;;;;10.88;3.50;;;;;;;4.41;100.00;100592.38;4973491;28;20043;-84
2023/12/09 07:15:23;;;;;;;6.80;3.53;;;;;;;4.53;100.00;100606.13;4972434;28;20109;-83
2023/12/09 07:18:25;;;;;;;;;;;;;;;;;;;;;
2023/12/09 07:20:51;;;;;;;10.85;3.50;;;;;;;4.47;100.00;100576.13;4971629;28;20034;-83
2023/12/09 07:23:53;;;;;;;10.90;3.50;;;;;;;4.56;100.00;100586.44;4976009;28;20412;-82
2023/12/09 07:35:42;;;;;;;14.30;3.88;;;;;;;4.76;100.00;100599.41;4994003;28;20070;-86
2023/12/09 07:45:33;;;;;;;12.20;3.90;;;;;;;4.73;100.00;100554.84;4917485;29;20046;-80
2023/12/09 07:48:10;;;;;;;12.88;3.67;;;;;;;4.77;100.00;100556.56;4901417;29;20050;-91
2023/12/09 07:54:12;;;;;;;13.57;3.83;;;;;;;4.89;100.00;100548.03;4986741;23;20155;-83
2023/12/09 07:56:50;;;;;;;20.35;4.90;;;;;;;5.02;100.00;100536.94;4974854;28;20448;-84
2023/12/09 07:59:34;;;;;;;12.43;3.90;;;;;;;5.08;100.00;100551.53;4995369;28;20042;-84
2023/12/09 08:02:17;;;;;;;13.10;3.80;;;;;;;4.95;100.00;100524.94;4995417;28;20391;-85
2023/12/09 08:04:42;;;;;;;12.18;4.20;;;;;;;4.98;100.00;100517.19;4994292;28;20030;-84
2023/12/09 08:07:07;;;;;;;8.93;3.47;;;;;;;5.10;100.00;100531.81;4995804;28;20030;-85
2023/12/09 08:10:01;;;;;;;9.30;3.33;;;;;;;5.10;100.00;100536.97;5023215;23;20491;-84
2023/12/09 08:12:47;;;;;;;12.95;3.88;;;;;;;5.09;100.00;100520.66;4974635;28;20043;-84
2023/12/09 08:15:13;;;;;;;14.02;3.72;;;;;;;5.15;100.00;100519.81;4929354;23;1253895;-84
2023/12/09 08:17:38;;;;;;;11.30;3.97;;;;;;;5.20;100.00;100515.53;4974597;28;20069;-84
2023/12/09 08:20:19;;;;;;;13.00;4.47;;;;;;;5.26;100.00;100520.69;4975867;28;20066;-84
2023/12/09 08:23:03;;;;;;;10.75;3.42;;;;;;;5.22;100.00;100505.25;4975793;28;20023;-84
2023/12/09 08:25:47;;;;;;;;;;;;;;;;;;;;;
2023/12/09 08:29:14;;;;;;;14.35;3.35;;;;;;;5.29;100.00;100514.72;4947448;28;20046;-83
2023/12/09 08:32:14;;;;;;;13.27;3.45;;;;;;;5.40;100.00;100530.97;4928494;28;20455;-84
2023/12/09 08:34:54;;;;;;;10.52;3.40;;;;;;;5.31;100.00;100510.41;4976062;28;20460;-84
2023/12/09 08:37:25;;;;;;;15.07;3.53;;;;;;;5.43;100.00;100522.44;4975898;28;20472;-84
2023/12/09 08:40:17;;;;;;;14.25;3.60;;;;;;;5.44;100.00;100508.72;4974654;28;20026;-83
2023/12/09 08:43:03;;;;;;;9.15;3.20;;;;;;;5.40;100.00;100494.94;4973517;28;20508;-83
2023/12/09 08:45:59;;;;;;;13.15;4.00;;;;;;;5.67;100.00;100513.00;4975408;28;20163;-84
2023/12/09 08:49:00;;;;;;;;;;;;;;;5.75;100.00;100511.28;4976107;28;20031;-84
2023/12/09 08:58:29;;;;;;;10.50;3.05;;;;;;;5.68;100.00;100482.09;4878384;29;20075;-80
2023/12/09 09:34:25;;;;;;;10.10;2.72;;;;;;;5.98;100.00;100376.44;5042738;23;20055;-83
2023/12/09 09:37:09;;;;;;;11.63;3.00;;;;;;;6.03;100.00;100388.47;4973298;28;20667;-84
2023/12/09 09:39:41;;;;;;;10.55;2.72;;;;;;;6.05;100.00;100387.59;4973865;28;20081;-84
2023/12/09 09:45:36;;;;;;;10.50;2.40;;;;;;;6.16;100.00;100378.94;5205379;23;20058;-84
2023/12/09 09:48:42;;;;;;;8.15;2.47;;;;;;;6.18;100.00;100372.06;4974594;28;20384;-84
2023/12/09 09:52:03;;;;;;;9.32;2.60;;;;;;;6.22;100.00;100369.50;4973721;28;20467;-85
2023/12/09 10:06:01;;;;;;;9.07;2.63;;;;;;;6.42;100.00;100339.31;4991832;28;20057;-84
2023/12/09 10:08:29;;;;;;;8.97;2.70;;;;;;;6.51;100.00;100330.66;5038077;23;20055;-84
2023/12/09 10:10:55;;;;;;;9.77;2.90;;;;;;;6.57;100.00;100309.16;4972860;28;20023;-84
2023/12/09 10:13:23;;;;;;;8.18;2.78;;;;;;;6.56;100.00;100297.97;4973986;28;20030;-84
2023/12/09 10:15:49;;;;;;;10.13;2.75;;;;;;;6.59;100.00;100291.91;4973474;28;20030;-83
2023/12/09 10:18:14;;;;;;;8.70;2.80;;;;;;;6.55;100.00;100269.63;4973175;28;20026;-83
2023/12/09 10:20:43;;;;;;;8.68;3.10;;;;;;;6.60;100.00;100265.25;4973440;28;20030;-83
2023/12/09 10:23:09;;;;;;;8.43;2.83;;;;;;;6.71;100.00;100252.28;4974011;28;20045;-83
2023/12/09 10:25:34;;;;;;;10.43;2.80;;;;;;;6.59;100.00;100227.44;4972766;28;20476;-85
2023/12/09 10:28:00;;;;;;;11.65;2.88;;;;;;;6.70;100.00;100230.78;4973921;28;20037;-84
2023/12/09 10:30:25;;;;;;;11.50;2.97;;;;;;;6.74;100.00;100223.91;4974335;28;20093;-84
2023/12/09 10:32:52;;;;;;;10.43;2.60;;;;;;;6.65;100.00;100222.25;4972728;28;20592;-84
2023/12/09 10:35:18;;;;;;;7.85;2.60;;;;;;;6.68;100.00;100217.09;4973743;28;20023;-84
2023/12/09 10:37:43;;;;;;;9.05;2.70;;;;;;;6.69;100.00;100199.88;4973794;28;20027;-83
2023/12/09 10:40:09;;;;;;;8.30;2.30;;;;;;;6.68;100.00;100203.31;4973083;28;20489;-84
2023/12/09 10:42:38;;;;;;;7.03;2.53;;;;;;;6.68;100.00;100209.34;4973464;28;20030;-84
2023/12/09 10:45:11;;;;;;;8.48;2.40;;;;;;;6.67;100.00;100199.91;4972974;28;20031;-83
2023/12/09 10:47:36;;;;;;;6.65;2.30;;;;;;;6.72;100.00;100186.94;4973250;28;20026;-77
2023/12/09 10:50:03;;;;;;;7.07;2.47;;;;;;;6.72;100.00;100162.00;4973798;28;20105;-84
2023/12/09 10:52:29;;;;;;;5.30;2.15;;;;;;;6.80;100.00;100149.03;4975481;28;20105;-83
2023/12/09 10:54:54;;;;;;;9.00;2.60;;;;;;;6.75;100.00;100136.19;4976982;28;20568;-83
2023/12/09 10:57:20;;;;;;;8.37;2.47;;;;;;;6.90;100.00;100130.00;4977650;28;20022;-83
2023/12/09 10:59:45;;;;;;;9.90;2.60;;;;;;;6.79;100.00;100106.06;4976768;28;20023;-83
2023/12/09 11:02:15;;;;;;;9.90;2.60;;;;;;;6.90;100.00;100114.53;5015728;23;20054;-82
2023/12/09 11:04:41;;;;;;;6.15;2.33;;;;;;;6.81;100.00;100109.47;4979274;28;20054;-82
2023/12/09 11:07:08;;;;;;;9.90;2.63;;;;;;;6.83;100.00;100112.91;4996182;28;20026;-82
2023/12/09 11:09:33;;;;;;;5.35;2.22;;;;;;;6.92;100.00;100110.22;4996519;28;20061;-82
2023/12/09 11:11:59;;;;;;;10.37;2.63;;;;;;;6.84;100.00;100093.09;4995613;28;20050;-81
2023/12/09 11:14:28;;;;;;;6.80;2.33;;;;;;;6.87;100.00;100078.44;4995486;28;20037;-81
2023/12/09 11:16:57;;;;;;;6.93;2.30;;;;;;;6.87;100.00;100057.81;4996317;28;20390;-82
2023/12/09 11:19:23;;;;;;;7.35;2.20;;;;;;;6.94;100.00;100063.75;4995270;28;20096;-81
2023/12/09 11:21:49;;;;;;;8.07;2.33;;;;;;;6.83;100.00;100045.84;4995376;28;20029;-82
2023/12/09 11:24:17;;;;;;;6.07;1.88;;;;;;;6.83;100.00;100048.41;4996503;28;20038;-82
2023/12/09 11:26:47;;;;;;;5.28;2.05;;;;;;;6.85;100.00;100033.78;4995991;28;20018;-81
2023/12/09 11:29:17;;;;;;;7.55;1.83;;;;;;;6.85;100.00;100044.09;4995409;28;20030;-81
2023/12/09 11:31:48;;;;;;;7.13;2.30;;;;;;;6.87;100.00;100016.53;4996417;28;20382;-82
2023/12/09 11:34:15;;;;;;;7.28;2.30;;;;;;;6.93;100.00;100001.00;4995153;23;20496;-80
2023/12/09 11:36:46;;;;;;;4.35;2.10;;;;;;;6.91;100.00;99989.84;4975507;28;20396;-81
2023/12/09 11:39:13;;;;;;;8.23;2.20;;;;;;;6.83;100.00;99981.38;4976467;28;20384;-82
2023/12/09 11:41:40;;;;;;;7.13;2.00;;;;;;;6.92;100.00;99960.59;4975494;28;20854;-81
2023/12/09 11:44:11;;;;;;;6.57;2.20;;;;;;;7.06;100.00;99967.28;4976643;28;20093;-82
2023/12/09 11:46:46;;;;;;;8.77;2.10;;;;;;;6.89;100.00;99939.16;4976576;28;20030;-81
2023/12/09 11:49:11;;;;;;;6.45;2.10;;;;;;;7.09;100.00;99934.53;4975799;28;20026;-81
2023/12/09 11:51:56;;;;;;;8.43;2.10;;;;;;;6.97;100.00;99921.00;4976266;28;20031;-81
2023/12/09 11:54:21;;;;;;;8.02;2.40;;;;;;;6.99;100.00;99907.19;4976222;28;20077;-80
2023/12/09 11:56:52;;;;;;;5.60;1.90;;;;;;;6.94;100.00;99893.50;4974658;28;20475;-81
2023/12/09 11:59:26;;;;;;;6.05;2.00;;;;;;;6.85;100.00;99886.75;4976657;28;20117;-81
2023/12/09 12:01:57;;;;;;;4.80;1.65;;;;;;;6.87;100.00;99874.66;4975888;28;20037;-81
2023/12/09 12:04:43;;;;;;;6.25;2.05;;;;;;;6.97;100.00;99883.13;4975444;28;20486;-81
2023/12/09 12:07:20;;;;;;;8.23;2.20;;;;;;;6.92;100.00;99856.56;4976323;28;20050;-82
2023/12/09 12:09:46;;;;;;;5.55;2.00;;;;;;;6.88;100.00;99818.78;4975329;28;20030;-83
2023/12/09 12:12:14;;;;;;;6.77;1.90;;;;;;;7.04;100.00;99827.13;4976581;28;20086;-82
2023/12/09 12:14:39;;;;;;;5.35;1.77;;;;;;;7.05;100.00;99836.56;4975985;28;20102;-82
2023/12/09 12:17:05;;;;;;;7.40;1.60;;;;;;;6.93;100.00;99825.59;4974528;28;20106;-82
2023/12/09 12:19:30;;;;;;;4.63;1.70;;;;;;;7.07;100.00;99827.09;4976003;28;20031;-83
2023/12/09 12:21:55;;;;;;;6.07;1.60;;;;;;;6.94;100.00;99795.47;4976112;28;20022;-82
2023/12/09 12:24:27;;;;;;;2.10;1.30;;;;;;;6.92;100.00;99771.44;4975060;28;20031;-82
2023/12/09 12:26:57;;;;;;;2.88;1.60;;;;;;;7.05;100.00;99757.44;4975148;28;20113;-82
2023/12/09 12:29:23;;;;;;;5.30;1.80;;;;;;;6.99;100.00;99748.94;5007197;23;20047;-82
2023/12/09 12:31:51;;;;;;;4.60;1.50;;;;;;;6.93;100.00;99740.47;4993944;28;20076;-82
2023/12/09 12:34:17;;;;;;;4.57;1.60;;;;;;;6.94;100.00;99721.53;5013353;28;20418;-82
2023/12/09 12:37:01;;;;;;;2.53;1.42;;;;;;;6.87;100.00;99704.44;5024222;23;20023;-81
2023/12/09 12:39:27;;;;;;;2.85;1.33;;;;;;;6.89;100.00;99700.13;4983600;28;20030;-82
2023/12/09 12:41:52;;;;;;;2.10;1.20;;;;;;;6.93;100.00;99698.31;4984692;28;20121;-82
2023/12/09 12:44:18;;;;;;;4.57;1.70;;;;;;;7.17;100.00;99684.13;4978537;28;20491;-83
2023/12/09 12:46:44;;;;;;;2.90;1.40;;;;;;;6.94;100.00;99662.19;4979744;28;20050;-82
2023/12/09 12:49:10;;;;;;;3.15;1.60;;;;;;;7.01;100.00;99638.84;4970694;28;20067;-82
2023/12/09 12:51:35;;;;;;;2.67;1.40;;;;;;;6.93;100.00;99634.69;4975117;28;20035;-83
2023/12/09 12:54:01;;;;;;;3.10;1.60;;;;;;;6.92;100.00;99633.00;4974249;28;20118;-83
2023/12/09 12:56:39;;;;;;;4.80;1.43;;;;;;;6.79;100.00;99600.59;4991458;28;20050;-83
2023/12/09 12:59:07;;;;;;;4.57;1.45;;;;;;;6.94;100.00;99610.63;4979660;28;20686;-83
2023/12/09 13:01:33;;;;;;;4.80;1.60;;;;;;;7.08;100.00;99619.81;4984061;28;20023;-83
2023/12/09 13:03:58;;;;;;;1.57;1.27;;;;;;;6.87;100.00;99609.00;4976771;28;20019;-83
2023/12/09 13:06:23;;;;;;;2.63;1.40;;;;;;;6.84;100.00;99603.06;4979228;28;20054;-82
2023/12/09 13:08:51;;;;;;;3.50;1.58;;;;;;;6.79;100.00;99591.13;4983447;28;20034;-83
2023/12/09 13:11:17;;;;;;;5.43;1.60;;;;;;;6.75;100.00;99573.19;4974703;28;20030;-82
2023/12/09 13:13:45;;;;;;;5.60;1.77;;;;;;;6.67;100.00;99559.56;4973739;28;20058;-82
2023/12/09 13:16:10;;;;;;;5.70;2.00;;;;;;;6.61;100.00;99543.34;4981346;28;20467;-82
2023/12/09 13:18:36;;;;;;;3.80;2.00;;;;;;;6.79;100.00;99547.31;5048014;23;20077;-81
2023/12/09 13:21:03;;;;;;;7.03;1.90;;;;;;;6.63;100.00;99538.16;4993529;28;20026;-81
2023/12/09 13:23:29;;;;;;;5.35;2.20;;;;;;;6.70;100.00;99531.16;4994447;28;20038;-80
2023/12/09 13:25:54;;;;;;;8.23;2.40;;;;;;;6.60;100.00;99512.44;4993936;28;20368;-80